sensor_id;sensor_type;location;lat;lon;timestamp;pressure;altitude;pressure_sealevel;temperature;humidity
48053;BME280;33824;51.600;5.718;2023-05-08T00:01:08;101836.31;;;16.65;100.00
48053;BME280;33824;51.600;5.718;2023-05-08T00:03:34;101838.63;;;16.68;100.00
48053;BME280;33824;51.600;5.718;2023-05-08T00:06:03;101838.44;;;16.70;100.00
48053;BME280;33824;51.600;5.718;2023-05-08T00:08:28;101845.75;;;16.76;100.00
48053;BME280;33824;51.600;5.718;2023-05-08T00:10:54;101841.00;;;16.78;100.00
48053;BME280;33824;51.600;5.718;2023-05-08T00:13:19;101834.19;;;16.82;100.00
48053;BME280;33824;51.600;5.718;2023-05-08T00:15:45;101836.31;;;16.87;100.00
48053;BME280;33824;51.600;5.718;2023-05-08T00:18:11;101839.84;;;16.87;100.00
48053;BME280;33824;51.600;5.718;2023-05-08T00:20:38;101838.84;;;16.88;100.00
48053;BME280;33824;51.600;5.718;2023-05-08T00:23:04;101846.09;;;16.88;100.00
48053;BME280;33824;51.600;5.718;2023-05-08T00:25:29;101830.50;;;16.83;100.00
48053;BME280;33824;51.600;5.718;2023-05-08T00:27:57;101831.63;;;16.74;100.00
48053;BME280;33824;51.600;5.718;2023-05-08T00:30:22;101827.97;;;16.60;100.00
48053;BME280;33824;51.600;5.718;2023-05-08T00:32:48;101830.03;;;16.58;100.00
48053;BME280;33824;51.600;5.718;2023-05-08T00:35:13;101829.81;;;16.60;100.00
48053;BME280;33824;51.600;5.718;2023-05-08T00:37:39;101835.94;;;16.68;100.00
48053;BME280;33824;51.600;5.718;2023-05-08T00:40:09;101842.53;;;16.66;100.00
48053;BME280;33824;51.600;5.718;2023-05-08T00:42:35;101843.00;;;16.69;100.00
48053;BME280;33824;51.600;5.718;2023-05-08T00:45:00;101839.25;;;16.70;100.00
48053;BME280;33824;51.600;5.718;2023-05-08T00:47:28;101833.88;;;16.70;100.00
48053;BME280;33824;51.600;5.718;2023-05-08T00:49:54;101840.75;;;16.73;100.00
48053;BME280;33824;51.600;5.718;2023-05-08T00:52:21;101832.00;;;16.71;100.00
48053;BME280;33824;51.600;5.718;2023-05-08T00:54:47;101835.38;;;16.73;100.00
48053;BME280;33824;51.600;5.718;2023-05-08T00:57:15;101827.47;;;16.71;100.00
48053;BME280;33824;51.600;5.718;2023-05-08T00:59:41;101830.53;;;16.68;100.00
48053;BME280;33824;51.600;5.718;2023-05-08T01:02:08;101823.69;;;16.66;100.00
48053;BME280;33824;51.600;5.718;2023-05-08T01:04:35;101823.03;;;16.64;100.00
48053;BME280;33824;51.600;5.718;2023-05-08T01:07:01;101833.63;;;16.65;100.00
48053;BME280;33824;51.600;5.718;2023-05-08T01:09:27;101835.25;;;16.66;100.00
48053;BME280;33824;51.600;5.718;2023-05-08T01:12:06;101829.34;;;16.56;100.00
48053;BME280;33824;51.600;5.718;2023-05-08T01:15:11;101840.03;;;16.50;100.00
48053;BME280;33824;51.600;5.718;2023-05-08T01:20:31;101830.28;;;16.49;100.00
48053;BME280;33824;51.600;5.718;2023-05-08T01:25:55;101821.28;;;16.42;100.00
48053;BME280;33824;51.600;5.718;2023-05-08T01:34:09;101826.97;;;16.32;100.00
48053;BME280;33824;51.600;5.718;2023-05-08T01:37:05;101830.84;;;16.29;100.00
48053;BME280;33824;51.600;5.718;2023-05-08T01:39:44;101832.06;;;16.27;100.00
48053;BME280;33824;51.600;5.718;2023-05-08T01:42:22;101828.38;;;16.28;100.00
48053;BME280;33824;51.600;5.718;2023-05-08T01:44:55;101825.00;;;16.41;100.00
48053;BME280;33824;51.600;5.718;2023-05-08T01:47:27;101827.50;;;16.42;100.00
48053;BME280;33824;51.600;5.718;2023-05-08T01:50:06;101824.75;;;16.36;100.00
48053;BME280;33824;51.600;5.718;2023-05-08T01:52:45;101830.84;;;16.29;100.00
48053;BME280;33824;51.600;5.718;2023-05-08T01:55:27;101829.75;;;16.24;100.00
48053;BME280;33824;51.600;5.718;2023-05-08T01:57:55;101837.09;;;16.01;100.00
48053;BME280;33824;51.600;5.718;2023-05-08T02:00:22;101828.84;;;16.17;100.00
48053;BME280;33824;51.600;5.718;2023-05-08T02:02:50;101834.69;;;16.20;100.00
48053;BME280;33824;51.600;5.718;2023-05-08T02:05:17;101843.31;;;16.30;100.00
48053;BME280;33824;51.600;5.718;2023-05-08T02:07:44;101849.44;;;16.39;100.00
48053;BME280;33824;51.600;5.718;2023-05-08T02:10:11;101839.75;;;16.45;100.00
48053;BME280;33824;51.600;5.718;2023-05-08T02:12:38;101842.72;;;16.50;100.00
48053;BME280;33824;51.600;5.718;2023-05-08T02:15:06;101843.00;;;16.55;100.00
48053;BME280;33824;51.600;5.718;2023-05-08T02:17:35;101843.28;;;16.60;100.00
48053;BME280;33824;51.600;5.718;2023-05-08T02:20:02;101851.34;;;16.60;100.00
48053;BME280;33824;51.600;5.718;2023-05-08T02:22:31;101847.34;;;16.56;100.00
48053;BME280;33824;51.600;5.718;2023-05-08T02:24:57;101850.50;;;16.59;100.00
48053;BME280;33824;51.600;5.718;2023-05-08T02:27:27;101852.00;;;16.62;100.00
48053;BME280;33824;51.600;5.718;2023-05-08T02:29:55;101856.63;;;16.68;100.00
48053;BME280;33824;51.600;5.718;2023-05-08T02:32:24;101860.72;;;16.64;100.00
48053;BME280;33824;51.600;5.718;2023-05-08T02:34:51;101857.28;;;16.70;100.00
48053;BME280;33824;51.600;5.718;2023-05-08T02:37:18;101853.38;;;16.72;100.00
48053;BME280;33824;51.600;5.718;2023-05-08T02:39:46;101844.47;;;16.72;100.00
48053;BME280;33824;51.600;5.718;2023-05-08T02:42:14;101845.94;;;16.74;100.00
48053;BME280;33824;51.600;5.718;2023-05-08T02:44:40;101854.38;;;16.71;100.00
48053;BME280;33824;51.600;5.718;2023-05-08T02:49:45;101850.22;;;16.69;100.00
48053;BME280;33824;51.600;5.718;2023-05-08T02:52:16;101852.94;;;16.69;100.00
48053;BME280;33824;51.600;5.718;2023-05-08T02:58:09;101845.34;;;16.58;100.00
48053;BME280;33824;51.600;5.718;2023-05-08T03:00:46;101842.88;;;16.63;100.00
48053;BME280;33824;51.600;5.718;2023-05-08T03:03:32;101833.53;;;16.59;100.00
48053;BME280;33824;51.600;5.718;2023-05-08T03:06:01;101847.91;;;16.66;100.00
48053;BME280;33824;51.600;5.718;2023-05-08T03:08:30;101842.53;;;16.66;100.00
48053;BME280;33824;51.600;5.718;2023-05-08T03:11:06;101835.03;;;16.61;100.00
48053;BME280;33824;51.600;5.718;2023-05-08T03:13:34;101834.34;;;16.59;100.00
48053;BME280;33824;51.600;5.718;2023-05-08T03:16:03;101847.47;;;16.62;100.00
48053;BME280;33824;51.600;5.718;2023-05-08T03:18:33;101849.94;;;16.64;100.00
48053;BME280;33824;51.600;5.718;2023-05-08T03:21:00;101838.34;;;16.63;100.00
48053;BME280;33824;51.600;5.718;2023-05-08T03:23:28;101848.72;;;16.66;100.00
48053;BME280;33824;51.600;5.718;2023-05-08T03:25:56;101842.53;;;16.66;100.00
48053;BME280;33824;51.600;5.718;2023-05-08T03:28:23;101843.34;;;16.66;100.00
48053;BME280;33824;51.600;5.718;2023-05-08T03:30:50;101836.69;;;16.62;100.00
48053;BME280;33824;51.600;5.718;2023-05-08T03:33:17;101835.41;;;16.58;100.00
48053;BME280;33824;51.600;5.718;2023-05-08T03:35:45;101839.00;;;16.51;100.00
48053;BME280;33824;51.600;5.718;2023-05-08T03:38:12;101834.19;;;16.46;100.00
48053;BME280;33824;51.600;5.718;2023-05-08T03:40:38;101836.41;;;16.43;100.00
48053;BME280;33824;51.600;5.718;2023-05-08T03:43:08;101836.31;;;16.36;100.00
48053;BME280;33824;51.600;5.718;2023-05-08T03:45:35;101831.97;;;16.35;100.00
48053;BME280;33824;51.600;5.718;2023-05-08T03:48:03;101835.41;;;16.29;100.00
48053;BME280;33824;51.600;5.718;2023-05-08T03:50:30;101828.94;;;16.23;100.00
48053;BME280;33824;51.600;5.718;2023-05-08T03:52:59;101827.16;;;16.16;100.00
48053;BME280;33824;51.600;5.718;2023-05-08T03:55:25;101827.34;;;16.14;100.00
48053;BME280;33824;51.600;5.718;2023-05-08T03:58:04;101833.56;;;16.00;100.00
48053;BME280;33824;51.600;5.718;2023-05-08T04:00:46;101832.81;;;15.92;100.00
48053;BME280;33824;51.600;5.718;2023-05-08T04:03:22;101837.56;;;15.90;100.00
48053;BME280;33824;51.600;5.718;2023-05-08T04:06:28;101838.75;;;15.87;100.00
48053;BME280;33824;51.600;5.718;2023-05-08T04:09:03;101837.34;;;15.76;100.00
48053;BME280;33824;51.600;5.718;2023-05-08T04:11:36;101839.66;;;15.79;100.00
48053;BME280;33824;51.600;5.718;2023-05-08T04:14:03;101838.94;;;15.86;100.00
48053;BME280;33824;51.600;5.718;2023-05-08T04:16:37;101840.81;;;15.85;100.00
48053;BME280;33824;51.600;5.718;2023-05-08T04:19:06;101845.22;;;15.63;100.00
48053;BME280;33824;51.600;5.718;2023-05-08T04:21:34;101842.28;;;15.88;100.00
48053;BME280;33824;51.600;5.718;2023-05-08T04:24:01;101853.31;;;15.93;100.00
48053;BME280;33824;51.600;5.718;2023-05-08T04:26:28;101848.59;;;15.95;100.00
48053;BME280;33824;51.600;5.718;2023-05-08T04:28:56;101856.56;;;16.03;100.00
48053;BME280;33824;51.600;5.718;2023-05-08T04:31:23;101850.25;;;16.10;100.00
48053;BME280;33824;51.600;5.718;2023-05-08T04:33:49;101850.38;;;16.17;100.00
48053;BME280;33824;51.600;5.718;2023-05-08T04:36:16;101849.78;;;16.21;100.00
48053;BME280;33824;51.600;5.718;2023-05-08T04:38:42;101858.78;;;16.28;100.00
48053;BME280;33824;51.600;5.718;2023-05-08T04:41:08;101857.84;;;16.36;100.00
48053;BME280;33824;51.600;5.718;2023-05-08T04:43:34;101856.91;;;16.44;100.00
48053;BME280;33824;51.600;5.718;2023-05-08T04:46:00;101851.44;;;16.52;100.00
48053;BME280;33824;51.600;5.718;2023-05-08T04:48:26;101853.41;;;16.58;100.00
48053;BME280;33824;51.600;5.718;2023-05-08T04:50:51;101857.19;;;16.63;100.00
48053;BME280;33824;51.600;5.718;2023-05-08T04:53:17;101855.22;;;16.72;100.00
48053;BME280;33824;51.600;5.718;2023-05-08T04:55:42;101859.03;;;16.77;100.00
48053;BME280;33824;51.600;5.718;2023-05-08T04:58:09;101858.25;;;16.84;100.00
48053;BME280;33824;51.600;5.718;2023-05-08T05:00:35;101862.88;;;16.90;100.00
48053;BME280;33824;51.600;5.718;2023-05-08T05:03:00;101863.53;;;16.92;100.00
48053;BME280;33824;51.600;5.718;2023-05-08T05:05:26;101862.75;;;16.98;100.00
48053;BME280;33824;51.600;5.718;2023-05-08T05:07:51;101869.81;;;16.99;100.00
48053;BME280;33824;51.600;5.718;2023-05-08T05:10:17;101874.66;;;17.03;100.00
48053;BME280;33824;51.600;5.718;2023-05-08T05:12:43;101876.16;;;17.12;100.00
48053;BME280;33824;51.600;5.718;2023-05-08T05:15:08;101868.19;;;17.19;100.00
48053;BME280;33824;51.600;5.718;2023-05-08T05:17:34;101871.38;;;17.29;100.00
48053;BME280;33824;51.600;5.718;2023-05-08T05:20:00;101877.47;;;17.38;100.00
48053;BME280;33824;51.600;5.718;2023-05-08T05:22:25;101886.06;;;17.48;100.00
48053;BME280;33824;51.600;5.718;2023-05-08T05:24:53;101885.16;;;17.62;100.00
48053;BME280;33824;51.600;5.718;2023-05-08T05:27:18;101883.38;;;17.69;100.00
48053;BME280;33824;51.600;5.718;2023-05-08T05:29:44;101887.34;;;17.73;100.00
48053;BME280;33824;51.600;5.718;2023-05-08T05:32:09;101885.97;;;17.84;100.00
48053;BME280;33824;51.600;5.718;2023-05-08T05:34:36;101884.03;;;17.99;100.00
48053;BME280;33824;51.600;5.718;2023-05-08T05:37:02;101880.63;;;18.18;100.00
48053;BME280;33824;51.600;5.718;2023-05-08T05:39:27;101875.91;;;18.33;100.00
48053;BME280;33824;51.600;5.718;2023-05-08T05:41:53;101881.97;;;18.42;100.00
48053;BME280;33824;51.600;5.718;2023-05-08T05:44:18;101894.13;;;18.52;100.00
48053;BME280;33824;51.600;5.718;2023-05-08T05:46:44;101898.31;;;18.68;100.00
48053;BME280;33824;51.600;5.718;2023-05-08T05:49:09;101903.09;;;18.66;100.00
48053;BME280;33824;51.600;5.718;2023-05-08T05:51:36;101899.38;;;18.74;100.00
48053;BME280;33824;51.600;5.718;2023-05-08T05:54:02;101905.66;;;18.81;100.00
48053;BME280;33824;51.600;5.718;2023-05-08T05:56:27;101915.66;;;18.87;100.00
48053;BME280;33824;51.600;5.718;2023-05-08T05:58:53;101910.47;;;18.92;100.00
48053;BME280;33824;51.600;5.718;2023-05-08T06:01:19;101911.94;;;18.94;100.00
48053;BME280;33824;51.600;5.718;2023-05-08T06:03:44;101911.72;;;18.96;100.00
48053;BME280;33824;51.600;5.718;2023-05-08T06:06:10;101913.22;;;18.98;100.00
48053;BME280;33824;51.600;5.718;2023-05-08T06:08:36;101924.41;;;18.95;100.00
48053;BME280;33824;51.600;5.718;2023-05-08T06:11:02;101917.56;;;18.99;100.00
48053;BME280;33824;51.600;5.718;2023-05-08T06:13:27;101923.19;;;18.98;100.00
48053;BME280;33824;51.600;5.718;2023-05-08T06:15:54;101915.91;;;18.98;100.00
48053;BME280;33824;51.600;5.718;2023-05-08T06:18:22;101918.81;;;18.97;100.00
48053;BME280;33824;51.600;5.718;2023-05-08T06:20:48;101920.69;;;18.96;100.00
48053;BME280;33824;51.600;5.718;2023-05-08T06:23:13;101920.06;;;19.01;100.00
48053;BME280;33824;51.600;5.718;2023-05-08T06:25:39;101919.47;;;19.05;100.00
48053;BME280;33824;51.600;5.718;2023-05-08T06:28:05;101918.03;;;19.09;100.00
48053;BME280;33824;51.600;5.718;2023-05-08T06:30:35;101912.81;;;19.14;100.00
48053;BME280;33824;51.600;5.718;2023-05-08T06:33:01;101915.75;;;19.20;100.00
48053;BME280;33824;51.600;5.718;2023-05-08T06:35:26;101914.31;;;19.24;100.00
48053;BME280;33824;51.600;5.718;2023-05-08T06:37:52;101915.16;;;19.31;100.00
48053;BME280;33824;51.600;5.718;2023-05-08T06:40:18;101914.31;;;19.30;100.00
48053;BME280;33824;51.600;5.718;2023-05-08T06:42:43;101923.25;;;19.31;100.00
48053;BME280;33824;51.600;5.718;2023-05-08T06:45:09;101913.28;;;19.25;100.00
48053;BME280;33824;51.600;5.718;2023-05-08T06:47:35;101908.69;;;19.25;100.00
48053;BME280;33824;51.600;5.718;2023-05-08T06:50:00;101913.50;;;19.36;100.00
48053;BME280;33824;51.600;5.718;2023-05-08T06:52:26;101913.09;;;19.39;100.00
48053;BME280;33824;51.600;5.718;2023-05-08T06:54:51;101919.97;;;19.42;100.00
48053;BME280;33824;51.600;5.718;2023-05-08T06:57:17;101918.13;;;19.42;99.89
48053;BME280;33824;51.600;5.718;2023-05-08T06:59:43;101923.25;;;19.31;99.29
48053;BME280;33824;51.600;5.718;2023-05-08T07:02:08;101914.72;;;19.27;99.45
48053;BME280;33824;51.600;5.718;2023-05-08T07:04:35;101919.94;;;19.35;99.72
48053;BME280;33824;51.600;5.718;2023-05-08T07:07:01;101922.22;;;19.32;99.28
48053;BME280;33824;51.600;5.718;2023-05-08T07:09:27;101924.53;;;19.35;99.47
48053;BME280;33824;51.600;5.718;2023-05-08T07:11:52;101920.38;;;19.39;99.71
48053;BME280;33824;51.600;5.718;2023-05-08T07:14:18;101925.13;;;19.30;99.27
48053;BME280;33824;51.600;5.718;2023-05-08T07:16:43;101927.19;;;19.22;99.23
48053;BME280;33824;51.600;5.718;2023-05-08T07:19:09;101930.31;;;19.25;99.37
48053;BME280;33824;51.600;5.718;2023-05-08T07:21:35;101927.22;;;19.28;99.34
48053;BME280;33824;51.600;5.718;2023-05-08T07:24:01;101919.97;;;19.42;99.71
48053;BME280;33824;51.600;5.718;2023-05-08T07:26:27;101923.56;;;19.55;100.00
48053;BME280;33824;51.600;5.718;2023-05-08T07:28:52;101924.38;;;19.69;99.83
48053;BME280;33824;51.600;5.718;2023-05-08T07:31:19;101922.50;;;19.83;99.68
48053;BME280;33824;51.600;5.718;2023-05-08T07:33:44;101925.41;;;20.01;99.52
48053;BME280;33824;51.600;5.718;2023-05-08T07:36:11;101925.38;;;20.14;99.23
48053;BME280;33824;51.600;5.718;2023-05-08T07:38:37;101927.66;;;20.17;98.61
48053;BME280;33824;51.600;5.718;2023-05-08T07:41:02;101929.13;;;20.20;98.10
48053;BME280;33824;51.600;5.718;2023-05-08T07:43:32;101941.25;;;20.04;97.88
48053;BME280;33824;51.600;5.718;2023-05-08T07:45:58;101941.84;;;19.86;98.00
48053;BME280;33824;51.600;5.718;2023-05-08T07:48:23;101940.63;;;19.69;98.19
48053;BME280;33824;51.600;5.718;2023-05-08T07:50:49;101941.44;;;19.56;98.43
48053;BME280;33824;51.600;5.718;2023-05-08T07:53:15;101945.16;;;19.42;98.54
48053;BME280;33824;51.600;5.718;2023-05-08T07:55:41;101945.53;;;19.39;99.16
48053;BME280;33824;51.600;5.718;2023-05-08T07:58:07;101942.25;;;19.44;98.89
48053;BME280;33824;51.600;5.718;2023-05-08T08:00:32;101946.84;;;19.56;99.19
48053;BME280;33824;51.600;5.718;2023-05-08T08:02:58;101930.63;;;19.76;99.42
48053;BME280;33824;51.600;5.718;2023-05-08T08:05:24;101936.25;;;19.88;98.71
48053;BME280;33824;51.600;5.718;2023-05-08T08:07:49;101936.03;;;19.89;98.19
48053;BME280;33824;51.600;5.718;2023-05-08T08:10:15;101934.78;;;20.05;98.05
48053;BME280;33824;51.600;5.718;2023-05-08T08:12:41;101927.25;;;20.13;98.21
48053;BME280;33824;51.600;5.718;2023-05-08T08:15:06;101922.06;;;20.19;97.62
48053;BME280;33824;51.600;5.718;2023-05-08T08:17:32;101923.28;;;20.36;97.60
48053;BME280;33824;51.600;5.718;2023-05-08T08:19:58;101929.06;;;20.59;97.74
48053;BME280;33824;51.600;5.718;2023-05-08T08:22:25;101913.31;;;20.87;97.28
48053;BME280;33824;51.600;5.718;2023-05-08T08:24:51;101915.22;;;21.25;96.84
48053;BME280;33824;51.600;5.718;2023-05-08T08:27:19;101914.59;;;21.54;95.26
48053;BME280;33824;51.600;5.718;2023-05-08T08:29:44;101906.56;;;21.90;94.70
48053;BME280;33824;51.600;5.718;2023-05-08T08:32:10;101906.50;;;22.22;93.99
48053;BME280;33824;51.600;5.718;2023-05-08T08:34:35;101911.84;;;22.46;91.98
48053;BME280;33824;51.600;5.718;2023-05-08T08:37:01;101909.13;;;22.46;89.75
48053;BME280;33824;51.600;5.718;2023-05-08T08:39:26;101908.69;;;22.68;89.90
48053;BME280;33824;51.600;5.718;2023-05-08T08:41:53;101907.22;;;23.02;89.36
48053;BME280;33824;51.600;5.718;2023-05-08T08:44:18;101903.81;;;23.48;88.08
48053;BME280;33824;51.600;5.718;2023-05-08T08:46:49;101900.44;;;23.75;86.60
48053;BME280;33824;51.600;5.718;2023-05-08T08:49:30;101902.66;;;23.67;85.08
48053;BME280;33824;51.600;5.718;2023-05-08T08:52:18;101905.00;;;23.52;85.82
48053;BME280;33824;51.600;5.718;2023-05-08T08:54:45;101907.63;;;23.47;86.07
48053;BME280;33824;51.600;5.718;2023-05-08T08:57:11;101911.56;;;23.32;85.89
48053;BME280;33824;51.600;5.718;2023-05-08T08:59:39;101910.94;;;23.19;85.54
48053;BME280;33824;51.600;5.718;2023-05-08T09:02:09;101913.81;;;22.94;85.56
48053;BME280;33824;51.600;5.718;2023-05-08T09:04:36;101915.13;;;22.73;85.42
48053;BME280;33824;51.600;5.718;2023-05-08T09:07:03;101899.69;;;22.31;85.55
48053;BME280;33824;51.600;5.718;2023-05-08T09:09:32;101915.16;;;22.12;86.37
48053;BME280;33824;51.600;5.718;2023-05-08T09:12:00;101911.56;;;21.93;87.06
48053;BME280;33824;51.600;5.718;2023-05-08T09:14:25;101911.63;;;21.87;87.49
48053;BME280;33824;51.600;5.718;2023-05-08T09:16:54;101905.84;;;21.77;86.78
48053;BME280;33824;51.600;5.718;2023-05-08T09:19:20;101915.34;;;21.61;87.43
48053;BME280;33824;51.600;5.718;2023-05-08T09:21:47;101916.47;;;21.53;88.05
48053;BME280;33824;51.600;5.718;2023-05-08T09:24:13;101912.59;;;21.43;87.89
48053;BME280;33824;51.600;5.718;2023-05-08T09:26:40;101920.44;;;21.26;87.76
48053;BME280;33824;51.600;5.718;2023-05-08T09:29:16;101915.69;;;21.08;88.40
48053;BME280;33824;51.600;5.718;2023-05-08T09:31:44;101918.63;;;21.14;88.95
48053;BME280;33824;51.600;5.718;2023-05-08T09:34:20;101920.06;;;21.16;88.91
48053;BME280;33824;51.600;5.718;2023-05-08T09:36:48;101923.13;;;20.88;88.53
48053;BME280;33824;51.600;5.718;2023-05-08T09:39:21;101924.19;;;20.74;88.40
48053;BME280;33824;51.600;5.718;2023-05-08T09:41:57;101926.00;;;20.93;89.32
48053;BME280;33824;51.600;5.718;2023-05-08T09:44:23;101927.34;;;21.22;88.81
48053;BME280;33824;51.600;5.718;2023-05-08T09:46:48;101927.47;;;21.34;88.24
48053;BME280;33824;51.600;5.718;2023-05-08T09:49:17;101930.59;;;21.37;88.16
48053;BME280;33824;51.600;5.718;2023-05-08T09:51:51;101922.59;;;21.42;85.42
48053;BME280;33824;51.600;5.718;2023-05-08T09:54:18;101924.25;;;21.75;87.08
48053;BME280;33824;51.600;5.718;2023-05-08T09:56:44;101927.66;;;21.88;86.37
48053;BME280;33824;51.600;5.718;2023-05-08T09:59:24;101922.34;;;22.07;84.87
48053;BME280;33824;51.600;5.718;2023-05-08T10:01:51;101922.19;;;22.38;83.85
48053;BME280;33824;51.600;5.718;2023-05-08T10:04:29;101928.06;;;22.53;83.34
48053;BME280;33824;51.600;5.718;2023-05-08T10:06:58;101924.03;;;22.80;81.42
48053;BME280;33824;51.600;5.718;2023-05-08T10:09:23;101918.31;;;23.00;80.74
48053;BME280;33824;51.600;5.718;2023-05-08T10:11:50;101925.25;;;23.44;81.54
48053;BME280;33824;51.600;5.718;2023-05-08T10:14:17;101911.34;;;23.87;81.50
48053;BME280;33824;51.600;5.718;2023-05-08T10:16:44;101924.66;;;24.18;79.17
48053;BME280;33824;51.600;5.718;2023-05-08T10:19:15;101923.91;;;24.11;77.09
48053;BME280;33824;51.600;5.718;2023-05-08T10:21:44;101920.69;;;23.68;77.81
48053;BME280;33824;51.600;5.718;2023-05-08T10:24:14;101918.16;;;23.43;78.34
48053;BME280;33824;51.600;5.718;2023-05-08T10:26:56;101919.16;;;23.01;79.02
48053;BME280;33824;51.600;5.718;2023-05-08T10:29:31;101922.47;;;23.03;80.31
48053;BME280;33824;51.600;5.718;2023-05-08T10:31:58;101915.50;;;23.07;79.72
48053;BME280;33824;51.600;5.718;2023-05-08T10:34:26;101919.34;;;23.47;78.85
48053;BME280;33824;51.600;5.718;2023-05-08T10:36:53;101914.63;;;23.54;78.38
48053;BME280;33824;51.600;5.718;2023-05-08T10:39:19;101923.34;;;23.45;78.25
48053;BME280;33824;51.600;5.718;2023-05-08T10:41:46;101903.03;;;23.59;77.61
48053;BME280;33824;51.600;5.718;2023-05-08T10:44:13;101906.59;;;23.82;77.09
48053;BME280;33824;51.600;5.718;2023-05-08T10:49:19;101896.03;;;24.44;73.72
48053;BME280;33824;51.600;5.718;2023-05-08T10:52:23;101900.56;;;23.69;75.29
48053;BME280;33824;51.600;5.718;2023-05-08T10:57:30;101908.13;;;23.67;77.35
48053;BME280;33824;51.600;5.718;2023-05-08T10:59:56;101891.19;;;23.65;77.31
48053;BME280;33824;51.600;5.718;2023-05-08T11:02:29;101901.06;;;23.36;76.90
48053;BME280;33824;51.600;5.718;2023-05-08T11:05:13;101899.94;;;23.25;75.25
48053;BME280;33824;51.600;5.718;2023-05-08T11:07:54;101891.75;;;23.14;77.91
48053;BME280;33824;51.600;5.718;2023-05-08T11:10:20;101891.34;;;23.40;78.06
48053;BME280;33824;51.600;5.718;2023-05-08T11:12:48;101894.06;;;23.40;77.83
48053;BME280;33824;51.600;5.718;2023-05-08T11:15:14;101891.25;;;23.35;78.01
48053;BME280;33824;51.600;5.718;2023-05-08T11:17:40;101886.00;;;23.86;77.61
48053;BME280;33824;51.600;5.718;2023-05-08T11:20:10;101874.19;;;24.16;75.31
48053;BME280;33824;51.600;5.718;2023-05-08T11:22:36;101879.72;;;24.09;76.65
48053;BME280;33824;51.600;5.718;2023-05-08T11:25:08;101869.63;;;24.45;75.08
48053;BME280;33824;51.600;5.718;2023-05-08T11:28:19;101875.94;;;24.33;75.57
48053;BME280;33824;51.600;5.718;2023-05-08T11:38:14;101863.22;;;24.79;74.41
48053;BME280;33824;51.600;5.718;2023-05-08T11:46:06;101865.03;;;24.62;71.36
48053;BME280;33824;51.600;5.718;2023-05-08T11:48:34;101860.56;;;24.56;71.67
48053;BME280;33824;51.600;5.718;2023-05-08T11:51:01;101859.75;;;24.83;72.76
48053;BME280;33824;51.600;5.718;2023-05-08T11:53:28;101853.78;;;24.98;70.84
48053;BME280;33824;51.600;5.718;2023-05-08T11:55:58;101848.84;;;24.95;71.01
48053;BME280;33824;51.600;5.718;2023-05-08T11:58:25;101848.72;;;24.90;71.17
48053;BME280;33824;51.600;5.718;2023-05-08T12:00:50;101852.41;;;24.96;70.29
48053;BME280;33824;51.600;5.718;2023-05-08T12:03:18;101850.91;;;25.05;69.89
48053;BME280;33824;51.600;5.718;2023-05-08T12:05:45;101854.63;;;24.99;71.40
48053;BME280;33824;51.600;5.718;2023-05-08T12:08:12;101851.56;;;25.12;71.74
48053;BME280;33824;51.600;5.718;2023-05-08T12:13:25;101845.63;;;25.31;68.55
48053;BME280;33824;51.600;5.718;2023-05-08T12:15:53;101853.94;;;24.92;71.47
48053;BME280;33824;51.600;5.718;2023-05-08T12:18:20;101846.16;;;25.45;71.77
48053;BME280;33824;51.600;5.718;2023-05-08T12:20:59;101842.94;;;25.65;70.42
48053;BME280;33824;51.600;5.718;2023-05-08T12:23:28;101840.28;;;25.70;70.00
48053;BME280;33824;51.600;5.718;2023-05-08T12:25:54;101838.19;;;25.77;69.70
48053;BME280;33824;51.600;5.718;2023-05-08T12:28:23;101837.22;;;25.83;69.27
48053;BME280;33824;51.600;5.718;2023-05-08T12:30:48;101838.19;;;25.77;68.44
48053;BME280;33824;51.600;5.718;2023-05-08T12:33:14;101831.16;;;25.81;68.22
48053;BME280;33824;51.600;5.718;2023-05-08T12:35:40;101835.81;;;25.47;69.15
48053;BME280;33824;51.600;5.718;2023-05-08T12:38:07;101843.97;;;25.30;69.52
48053;BME280;33824;51.600;5.718;2023-05-08T12:40:34;101848.63;;;24.73;68.73
48053;BME280;33824;51.600;5.718;2023-05-08T12:43:02;101839.34;;;25.31;69.16
48053;BME280;33824;51.600;5.718;2023-05-08T12:45:29;101836.16;;;25.67;67.74
48053;BME280;33824;51.600;5.718;2023-05-08T12:48:00;101833.47;;;25.39;67.63
48053;BME280;33824;51.600;5.718;2023-05-08T12:50:26;101826.34;;;25.38;69.01
48053;BME280;33824;51.600;5.718;2023-05-08T12:52:52;101819.25;;;25.70;69.02
48053;BME280;33824;51.600;5.718;2023-05-08T12:55:25;101818.84;;;25.78;66.07
48053;BME280;33824;51.600;5.718;2023-05-08T12:58:03;101817.47;;;25.59;67.19
48053;BME280;33824;51.600;5.718;2023-05-08T13:00:40;101817.19;;;25.61;67.70
48053;BME280;33824;51.600;5.718;2023-05-08T13:03:08;101807.25;;;26.10;67.90
48053;BME280;33824;51.600;5.718;2023-05-08T13:05:35;101810.75;;;26.49;67.28
48053;BME280;33824;51.600;5.718;2023-05-08T13:08:03;101800.97;;;26.31;65.47
48053;BME280;33824;51.600;5.718;2023-05-08T13:10:44;101814.34;;;26.11;63.45
48053;BME280;33824;51.600;5.718;2023-05-08T13:13:12;101803.75;;;26.58;63.72
48053;BME280;33824;51.600;5.718;2023-05-08T13:15:37;101804.66;;;26.68;63.96
48053;BME280;33824;51.600;5.718;2023-05-08T13:18:03;101793.03;;;26.78;63.64
48053;BME280;33824;51.600;5.718;2023-05-08T13:20:28;101793.44;;;26.92;64.39
48053;BME280;33824;51.600;5.718;2023-05-08T13:22:54;101789.75;;;27.08;62.15
48053;BME280;33824;51.600;5.718;2023-05-08T13:25:19;101789.53;;;27.14;62.27
48053;BME280;33824;51.600;5.718;2023-05-08T13:27:45;101793.09;;;27.15;61.27
48053;BME280;33824;51.600;5.718;2023-05-08T13:30:11;101784.38;;;27.18;62.02